sensor_id;sensor_type;location;lat;lon;timestamp;P1;durP1;ratioP1;P2;durP2;ratioP2
4756;SDS011;2392;52.578;13.426;2023-10-19T00:02:44;36.00;;;15.90;;
4756;SDS011;2392;52.578;13.426;2023-10-19T00:05:11;35.23;;;15.40;;
4756;SDS011;2392;52.578;13.426;2023-10-19T00:07:40;38.93;;;16.80;;
4756;SDS011;2392;52.578;13.426;2023-10-19T00:10:07;32.20;;;16.00;;
4756;SDS011;2392;52.578;13.426;2023-10-19T00:12:35;32.27;;;14.60;;
4756;SDS011;2392;52.578;13.426;2023-10-19T00:15:02;32.47;;;15.60;;
4756;SDS011;2392;52.578;13.426;2023-10-19T00:17:30;35.67;;;16.90;;
4756;SDS011;2392;52.578;13.426;2023-10-19T00:19:57;33.67;;;15.77;;
4756;SDS011;2392;52.578;13.426;2023-10-19T00:22:46;35.13;;;16.60;;
4756;SDS011;2392;52.578;13.426;2023-10-19T00:25:14;38.13;;;16.10;;
4756;SDS011;2392;52.578;13.426;2023-10-19T00:27:42;39.47;;;16.80;;
4756;SDS011;2392;52.578;13.426;2023-10-19T00:56:46;37.17;;;15.80;;
4756;SDS011;2392;52.578;13.426;2023-10-19T00:59:14;37.70;;;17.13;;
4756;SDS011;2392;52.578;13.426;2023-10-19T01:01:50;34.40;;;16.37;;
4756;SDS011;2392;52.578;13.426;2023-10-19T01:04:21;38.07;;;16.83;;
4756;SDS011;2392;52.578;13.426;2023-10-19T01:06:51;39.23;;;17.23;;
4756;SDS011;2392;52.578;13.426;2023-10-19T01:09:31;34.63;;;16.50;;
4756;SDS011;2392;52.578;13.426;2023-10-19T01:12:05;34.53;;;16.77;;
4756;SDS011;2392;52.578;13.426;2023-10-19T01:15:06;39.87;;;16.47;;
4756;SDS011;2392;52.578;13.426;2023-10-19T01:17:55;37.87;;;17.80;;
4756;SDS011;2392;52.578;13.426;2023-10-19T01:20:25;38.60;;;16.30;;
4756;SDS011;2392;52.578;13.426;2023-10-19T01:23:14;35.20;;;16.37;;
4756;SDS011;2392;52.578;13.426;2023-10-19T01:25:51;35.37;;;16.43;;
4756;SDS011;2392;52.578;13.426;2023-10-19T01:28:28;34.30;;;16.83;;
4756;SDS011;2392;52.578;13.426;2023-10-19T01:31:08;35.80;;;17.13;;
4756;SDS011;2392;52.578;13.426;2023-10-19T01:33:41;38.20;;;16.57;;
4756;SDS011;2392;52.578;13.426;2023-10-19T01:36:09;39.07;;;17.20;;
4756;SDS011;2392;52.578;13.426;2023-10-19T01:38:51;39.20;;;16.80;;
4756;SDS011;2392;52.578;13.426;2023-10-19T01:41:20;34.47;;;15.77;;
4756;SDS011;2392;52.578;13.426;2023-10-19T01:43:47;39.90;;;17.87;;
4756;SDS011;2392;52.578;13.426;2023-10-19T01:46:16;38.07;;;17.60;;
4756;SDS011;2392;52.578;13.426;2023-10-19T01:48:47;37.97;;;15.90;;
4756;SDS011;2392;52.578;13.426;2023-10-19T01:51:19;35.10;;;17.30;;
4756;SDS011;2392;52.578;13.426;2023-10-19T01:53:46;34.03;;;16.57;;
4756;SDS011;2392;52.578;13.426;2023-10-19T01:56:15;43.50;;;17.43;;
4756;SDS011;2392;52.578;13.426;2023-10-19T01:58:42;39.63;;;17.90;;
4756;SDS011;2392;52.578;13.426;2023-10-19T02:01:12;41.53;;;19.60;;
4756;SDS011;2392;52.578;13.426;2023-10-19T02:03:46;38.93;;;17.50;;
4756;SDS011;2392;52.578;13.426;2023-10-19T02:06:18;38.30;;;18.00;;
4756;SDS011;2392;52.578;13.426;2023-10-19T02:08:45;40.53;;;17.53;;
4756;SDS011;2392;52.578;13.426;2023-10-19T02:11:18;35.63;;;16.90;;
4756;SDS011;2392;52.578;13.426;2023-10-19T02:13:47;37.23;;;16.73;;
4756;SDS011;2392;52.578;13.426;2023-10-19T02:16:16;37.87;;;16.47;;
4756;SDS011;2392;52.578;13.426;2023-10-19T02:18:45;41.30;;;17.00;;
4756;SDS011;2392;52.578;13.426;2023-10-19T02:21:12;36.53;;;17.10;;
4756;SDS011;2392;52.578;13.426;2023-10-19T02:23:39;36.43;;;16.63;;
4756;SDS011;2392;52.578;13.426;2023-10-19T02:26:07;36.80;;;17.23;;
4756;SDS011;2392;52.578;13.426;2023-10-19T02:28:37;40.20;;;18.90;;
4756;SDS011;2392;52.578;13.426;2023-10-19T02:31:04;38.10;;;17.23;;
4756;SDS011;2392;52.578;13.426;2023-10-19T02:33:40;37.10;;;18.20;;
4756;SDS011;2392;52.578;13.426;2023-10-19T02:36:11;38.47;;;18.07;;
4756;SDS011;2392;52.578;13.426;2023-10-19T02:38:39;42.27;;;18.30;;
4756;SDS011;2392;52.578;13.426;2023-10-19T02:41:09;40.57;;;18.20;;
4756;SDS011;2392;52.578;13.426;2023-10-19T02:43:37;37.37;;;16.90;;
4756;SDS011;2392;52.578;13.426;2023-10-19T02:46:06;36.33;;;18.47;;
4756;SDS011;2392;52.578;13.426;2023-10-19T02:48:32;36.67;;;17.70;;
4756;SDS011;2392;52.578;13.426;2023-10-19T02:51:00;42.30;;;18.80;;
4756;SDS011;2392;52.578;13.426;2023-10-19T02:53:33;40.50;;;17.40;;
4756;SDS011;2392;52.578;13.426;2023-10-19T02:56:09;39.40;;;17.10;;
4756;SDS011;2392;52.578;13.426;2023-10-19T02:58:39;33.60;;;16.40;;
4756;SDS011;2392;52.578;13.426;2023-10-19T03:01:12;41.10;;;17.70;;
4756;SDS011;2392;52.578;13.426;2023-10-19T03:03:42;45.43;;;18.93;;
4756;SDS011;2392;52.578;13.426;2023-10-19T03:06:11;38.50;;;18.93;;
4756;SDS011;2392;52.578;13.426;2023-10-19T03:08:38;43.70;;;18.87;;
4756;SDS011;2392;52.578;13.426;2023-10-19T03:11:06;38.60;;;18.20;;
4756;SDS011;2392;52.578;13.426;2023-10-19T03:13:32;38.03;;;19.17;;
4756;SDS011;2392;52.578;13.426;2023-10-19T03:16:01;39.50;;;18.00;;
4756;SDS011;2392;52.578;13.426;2023-10-19T03:18:33;38.50;;;17.63;;
4756;SDS011;2392;52.578;13.426;2023-10-19T03:21:00;38.10;;;18.47;;
4756;SDS011;2392;52.578;13.426;2023-10-19T03:23:28;36.47;;;16.10;;
4756;SDS011;2392;52.578;13.426;2023-10-19T03:25:54;38.10;;;17.90;;
4756;SDS011;2392;52.578;13.426;2023-10-19T03:28:36;40.30;;;18.80;;
4756;SDS011;2392;52.578;13.426;2023-10-19T03:31:04;39.30;;;18.27;;
4756;SDS011;2392;52.578;13.426;2023-10-19T03:33:32;38.57;;;17.20;;
4756;SDS011;2392;52.578;13.426;2023-10-19T03:36:01;40.13;;;18.83;;
4756;SDS011;2392;52.578;13.426;2023-10-19T03:38:30;40.30;;;17.40;;
4756;SDS011;2392;52.578;13.426;2023-10-19T03:41:02;39.93;;;18.87;;
4756;SDS011;2392;52.578;13.426;2023-10-19T03:43:34;40.97;;;18.37;;
4756;SDS011;2392;52.578;13.426;2023-10-19T03:46:07;37.87;;;19.17;;
4756;SDS011;2392;52.578;13.426;2023-10-19T03:48:47;41.03;;;18.07;;
4756;SDS011;2392;52.578;13.426;2023-10-19T03:51:15;42.97;;;19.63;;
4756;SDS011;2392;52.578;13.426;2023-10-19T03:53:43;37.63;;;18.40;;
4756;SDS011;2392;52.578;13.426;2023-10-19T03:56:14;37.80;;;18.33;;
4756;SDS011;2392;52.578;13.426;2023-10-19T03:58:43;40.10;;;19.07;;
4756;SDS011;2392;52.578;13.426;2023-10-19T04:01:15;39.90;;;19.87;;
4756;SDS011;2392;52.578;13.426;2023-10-19T04:03:42;41.07;;;18.80;;
4756;SDS011;2392;52.578;13.426;2023-10-19T04:06:09;42.67;;;18.80;;
4756;SDS011;2392;52.578;13.426;2023-10-19T04:08:43;36.80;;;17.73;;
4756;SDS011;2392;52.578;13.426;2023-10-19T04:11:15;43.07;;;19.70;;
4756;SDS011;2392;52.578;13.426;2023-10-19T04:13:48;39.63;;;18.03;;
4756;SDS011;2392;52.578;13.426;2023-10-19T04:16:20;45.83;;;19.03;;
4756;SDS011;2392;52.578;13.426;2023-10-19T04:18:47;38.13;;;18.80;;
4756;SDS011;2392;52.578;13.426;2023-10-19T04:21:15;38.53;;;19.10;;
4756;SDS011;2392;52.578;13.426;2023-10-19T04:23:42;40.07;;;19.03;;
4756;SDS011;2392;52.578;13.426;2023-10-19T04:26:11;38.13;;;17.77;;
4756;SDS011;2392;52.578;13.426;2023-10-19T04:28:44;40.57;;;19.33;;
4756;SDS011;2392;52.578;13.426;2023-10-19T04:31:15;38.67;;;18.77;;
4756;SDS011;2392;52.578;13.426;2023-10-19T04:33:44;44.47;;;18.80;;
4756;SDS011;2392;52.578;13.426;2023-10-19T04:36:13;41.77;;;18.53;;
4756;SDS011;2392;52.578;13.426;2023-10-19T04:38:41;38.50;;;18.60;;
4756;SDS011;2392;52.578;13.426;2023-10-19T04:41:09;42.30;;;19.27;;
4756;SDS011;2392;52.578;13.426;2023-10-19T04:43:37;42.50;;;19.60;;
4756;SDS011;2392;52.578;13.426;2023-10-19T04:46:05;41.40;;;19.80;;
4756;SDS011;2392;52.578;13.426;2023-10-19T04:48:38;44.57;;;21.57;;
4756;SDS011;2392;52.578;13.426;2023-10-19T04:51:10;47.43;;;18.37;;
4756;SDS011;2392;52.578;13.426;2023-10-19T04:53:37;39.23;;;19.03;;
4756;SDS011;2392;52.578;13.426;2023-10-19T04:56:05;42.23;;;20.10;;
4756;SDS011;2392;52.578;13.426;2023-10-19T04:58:35;39.67;;;19.30;;
4756;SDS011;2392;52.578;13.426;2023-10-19T05:01:02;41.47;;;19.17;;
4756;SDS011;2392;52.578;13.426;2023-10-19T05:03:30;47.40;;;20.93;;
4756;SDS011;2392;52.578;13.426;2023-10-19T05:05:58;40.47;;;19.40;;
4756;SDS011;2392;52.578;13.426;2023-10-19T05:08:28;41.70;;;20.10;;
4756;SDS011;2392;52.578;13.426;2023-10-19T05:10:55;44.57;;;21.13;;
4756;SDS011;2392;52.578;13.426;2023-10-19T05:13:24;45.93;;;21.37;;
4756;SDS011;2392;52.578;13.426;2023-10-19T05:15:52;38.97;;;19.33;;
4756;SDS011;2392;52.578;13.426;2023-10-19T05:18:19;39.40;;;19.60;;
4756;SDS011;2392;52.578;13.426;2023-10-19T05:20:47;38.60;;;18.90;;
4756;SDS011;2392;52.578;13.426;2023-10-19T05:23:20;42.50;;;20.43;;
4756;SDS011;2392;52.578;13.426;2023-10-19T05:25:49;51.20;;;21.47;;
4756;SDS011;2392;52.578;13.426;2023-10-19T05:28:17;40.10;;;18.70;;
4756;SDS011;2392;52.578;13.426;2023-10-19T05:30:45;41.00;;;19.93;;
4756;SDS011;2392;52.578;13.426;2023-10-19T05:33:14;45.13;;;21.00;;
4756;SDS011;2392;52.578;13.426;2023-10-19T05:35:41;43.70;;;20.00;;
4756;SDS011;2392;52.578;13.426;2023-10-19T05:38:11;42.67;;;21.60;;
4756;SDS011;2392;52.578;13.426;2023-10-19T05:40:38;45.07;;;21.50;;
4756;SDS011;2392;52.578;13.426;2023-10-19T05:43:09;43.60;;;20.97;;
4756;SDS011;2392;52.578;13.426;2023-10-19T05:45:36;41.73;;;20.87;;
4756;SDS011;2392;52.578;13.426;2023-10-19T05:48:04;40.70;;;20.50;;
4756;SDS011;2392;52.578;13.426;2023-10-19T05:50:32;46.57;;;20.77;;
4756;SDS011;2392;52.578;13.426;2023-10-19T05:52:59;43.27;;;21.53;;
4756;SDS011;2392;52.578;13.426;2023-10-19T05:55:26;42.17;;;21.03;;
4756;SDS011;2392;52.578;13.426;2023-10-19T05:57:54;42.57;;;21.60;;
4756;SDS011;2392;52.578;13.426;2023-10-19T06:00:23;44.77;;;22.23;;
4756;SDS011;2392;52.578;13.426;2023-10-19T06:02:51;45.10;;;22.17;;
4756;SDS011;2392;52.578;13.426;2023-10-19T06:05:18;44.70;;;21.50;;
4756;SDS011;2392;52.578;13.426;2023-10-19T06:07:46;45.60;;;21.73;;
4756;SDS011;2392;52.578;13.426;2023-10-19T06:10:15;46.90;;;21.23;;
4756;SDS011;2392;52.578;13.426;2023-10-19T06:12:43;43.10;;;21.33;;
4756;SDS011;2392;52.578;13.426;2023-10-19T06:15:11;43.93;;;21.47;;
4756;SDS011;2392;52.578;13.426;2023-10-19T06:17:41;46.63;;;21.97;;
4756;SDS011;2392;52.578;13.426;2023-10-19T06:20:11;43.40;;;21.77;;
4756;SDS011;2392;52.578;13.426;2023-10-19T06:22:49;43.07;;;23.07;;
4756;SDS011;2392;52.578;13.426;2023-10-19T06:25:17;43.30;;;22.73;;
4756;SDS011;2392;52.578;13.426;2023-10-19T06:27:45;46.17;;;22.10;;
4756;SDS011;2392;52.578;13.426;2023-10-19T06:30:13;49.50;;;23.50;;
4756;SDS011;2392;52.578;13.426;2023-10-19T06:32:48;44.90;;;21.67;;
4756;SDS011;2392;52.578;13.426;2023-10-19T06:35:16;48.83;;;22.37;;
4756;SDS011;2392;52.578;13.426;2023-10-19T06:37:43;49.57;;;23.03;;
4756;SDS011;2392;52.578;13.426;2023-10-19T06:40:11;45.13;;;21.67;;
4756;SDS011;2392;52.578;13.426;2023-10-19T06:42:40;44.80;;;22.00;;
4756;SDS011;2392;52.578;13.426;2023-10-19T06:45:07;45.30;;;22.17;;
4756;SDS011;2392;52.578;13.426;2023-10-19T06:47:39;45.83;;;23.90;;
4756;SDS011;2392;52.578;13.426;2023-10-19T06:50:08;44.73;;;23.20;;
4756;SDS011;2392;52.578;13.426;2023-10-19T06:52:36;47.63;;;22.70;;
4756;SDS011;2392;52.578;13.426;2023-10-19T06:55:04;42.90;;;22.83;;
4756;SDS011;2392;52.578;13.426;2023-10-19T06:57:32;46.53;;;21.80;;
4756;SDS011;2392;52.578;13.426;2023-10-19T06:59:59;45.40;;;22.67;;
4756;SDS011;2392;52.578;13.426;2023-10-19T07:02:36;45.77;;;21.23;;
4756;SDS011;2392;52.578;13.426;2023-10-19T07:05:03;45.17;;;22.50;;
4756;SDS011;2392;52.578;13.426;2023-10-19T07:07:32;43.90;;;21.67;;
4756;SDS011;2392;52.578;13.426;2023-10-19T07:09:59;45.00;;;22.60;;
4756;SDS011;2392;52.578;13.426;2023-10-19T07:12:28;43.10;;;22.03;;
4756;SDS011;2392;52.578;13.426;2023-10-19T07:14:56;46.17;;;21.60;;
4756;SDS011;2392;52.578;13.426;2023-10-19T07:17:26;39.07;;;21.33;;
4756;SDS011;2392;52.578;13.426;2023-10-19T07:19:53;43.37;;;21.63;;
4756;SDS011;2392;52.578;13.426;2023-10-19T07:22:22;42.17;;;20.50;;
4756;SDS011;2392;52.578;13.426;2023-10-19T07:24:51;44.60;;;21.30;;
4756;SDS011;2392;52.578;13.426;2023-10-19T07:27:20;42.70;;;20.77;;
4756;SDS011;2392;52.578;13.426;2023-10-19T07:29:48;43.57;;;20.10;;
4756;SDS011;2392;52.578;13.426;2023-10-19T07:32:15;43.30;;;20.70;;
4756;SDS011;2392;52.578;13.426;2023-10-19T07:34:42;47.87;;;23.17;;
4756;SDS011;2392;52.578;13.426;2023-10-19T07:37:10;42.50;;;22.50;;
4756;SDS011;2392;52.578;13.426;2023-10-19T07:39:40;44.30;;;21.67;;
4756;SDS011;2392;52.578;13.426;2023-10-19T07:42:12;40.97;;;20.37;;
4756;SDS011;2392;52.578;13.426;2023-10-19T07:44:39;45.83;;;23.33;;
4756;SDS011;2392;52.578;13.426;2023-10-19T07:47:06;42.27;;;21.40;;
4756;SDS011;2392;52.578;13.426;2023-10-19T07:49:34;46.13;;;21.80;;
4756;SDS011;2392;52.578;13.426;2023-10-19T07:52:03;43.93;;;21.13;;
4756;SDS011;2392;52.578;13.426;2023-10-19T07:54:32;41.40;;;20.27;;
4756;SDS011;2392;52.578;13.426;2023-10-19T07:56:59;43.50;;;20.73;;
4756;SDS011;2392;52.578;13.426;2023-10-19T07:59:29;42.33;;;21.07;;
4756;SDS011;2392;52.578;13.426;2023-10-19T08:01:56;51.07;;;21.10;;
4756;SDS011;2392;52.578;13.426;2023-10-19T08:04:26;41.77;;;20.40;;
4756;SDS011;2392;52.578;13.426;2023-10-19T08:06:53;42.40;;;20.83;;
4756;SDS011;2392;52.578;13.426;2023-10-19T08:09:20;41.00;;;21.37;;
4756;SDS011;2392;52.578;13.426;2023-10-19T08:11:49;42.83;;;19.77;;
4756;SDS011;2392;52.578;13.426;2023-10-19T08:14:20;42.10;;;21.00;;
4756;SDS011;2392;52.578;13.426;2023-10-19T08:16:49;44.90;;;20.00;;
4756;SDS011;2392;52.578;13.426;2023-10-19T08:19:16;45.33;;;20.90;;
4756;SDS011;2392;52.578;13.426;2023-10-19T08:21:43;43.10;;;21.63;;
4756;SDS011;2392;52.578;13.426;2023-10-19T08:24:10;47.43;;;21.37;;
4756;SDS011;2392;52.578;13.426;2023-10-19T08:26:38;43.93;;;20.93;;
4756;SDS011;2392;52.578;13.426;2023-10-19T08:29:06;40.73;;;21.23;;
4756;SDS011;2392;52.578;13.426;2023-10-19T08:31:38;44.90;;;21.60;;
4756;SDS011;2392;52.578;13.426;2023-10-19T08:34:07;42.90;;;21.50;;
4756;SDS011;2392;52.578;13.426;2023-10-19T08:36:36;45.33;;;20.43;;
4756;SDS011;2392;52.578;13.426;2023-10-19T08:39:04;46.27;;;20.97;;
4756;SDS011;2392;52.578;13.426;2023-10-19T08:41:32;43.43;;;19.80;;
4756;SDS011;2392;52.578;13.426;2023-10-19T08:44:02;42.37;;;21.30;;
4756;SDS011;2392;52.578;13.426;2023-10-19T08:46:29;43.23;;;19.03;;
4756;SDS011;2392;52.578;13.426;2023-10-19T08:48:57;42.23;;;20.27;;
4756;SDS011;2392;52.578;13.426;2023-10-19T08:51:26;42.23;;;21.53;;
4756;SDS011;2392;52.578;13.426;2023-10-19T08:53:54;43.70;;;20.90;;
4756;SDS011;2392;52.578;13.426;2023-10-19T08:56:21;43.83;;;21.13;;
4756;SDS011;2392;52.578;13.426;2023-10-19T08:58:50;43.67;;;20.70;;
4756;SDS011;2392;52.578;13.426;2023-10-19T09:01:18;40.70;;;20.00;;
4756;SDS011;2392;52.578;13.426;2023-10-19T09:03:49;41.83;;;20.80;;
4756;SDS011;2392;52.578;13.426;2023-10-19T09:06:17;43.80;;;20.67;;
4756;SDS011;2392;52.578;13.426;2023-10-19T09:08:47;51.90;;;21.83;;
4756;SDS011;2392;52.578;13.426;2023-10-19T09:11:14;43.30;;;21.90;;
4756;SDS011;2392;52.578;13.426;2023-10-19T09:13:45;45.67;;;22.13;;
4756;SDS011;2392;52.578;13.426;2023-10-19T09:16:14;43.30;;;19.70;;
4756;SDS011;2392;52.578;13.426;2023-10-19T09:18:41;44.40;;;21.50;;
4756;SDS011;2392;52.578;13.426;2023-10-19T09:21:15;42.87;;;20.00;;
4756;SDS011;2392;52.578;13.426;2023-10-19T09:23:50;40.83;;;19.90;;
4756;SDS011;2392;52.578;13.426;2023-10-19T09:26:19;41.10;;;19.67;;
4756;SDS011;2392;52.578;13.426;2023-10-19T09:28:48;44.80;;;21.43;;
4756;SDS011;2392;52.578;13.426;2023-10-19T09:31:16;44.50;;;20.37;;
4756;SDS011;2392;52.578;13.426;2023-10-19T09:33:44;45.67;;;22.03;;
4756;SDS011;2392;52.578;13.426;2023-10-19T09:36:14;39.87;;;20.13;;
4756;SDS011;2392;52.578;13.426;2023-10-19T09:38:45;41.23;;;20.10;;
4756;SDS011;2392;52.578;13.426;2023-10-19T09:41:17;41.00;;;20.27;;
4756;SDS011;2392;52.578;13.426;2023-10-19T09:43:45;40.33;;;20.90;;
4756;SDS011;2392;52.578;13.426;2023-10-19T09:46:16;43.53;;;20.20;;
4756;SDS011;2392;52.578;13.426;2023-10-19T09:48:48;42.70;;;19.83;;
4756;SDS011;2392;52.578;13.426;2023-10-19T09:51:16;41.13;;;19.70;;
4756;SDS011;2392;52.578;13.426;2023-10-19T09:53:45;40.67;;;19.83;;
4756;SDS011;2392;52.578;13.426;2023-10-19T09:56:28;37.53;;;19.70;;
4756;SDS011;2392;52.578;13.426;2023-10-19T09:59:02;43.90;;;21.67;;
4756;SDS011;2392;52.578;13.426;2023-10-19T10:04:32;39.60;;;20.30;;
4756;SDS011;2392;52.578;13.426;2023-10-19T10:07:00;39.60;;;20.90;;
4756;SDS011;2392;52.578;13.426;2023-10-19T10:09:30;48.57;;;21.60;;
4756;SDS011;2392;52.578;13.426;2023-10-19T10:12:16;42.70;;;21.10;;
4756;SDS011;2392;52.578;13.426;2023-10-19T10:17:33;41.90;;;20.33;;
4756;SDS011;2392;52.578;13.426;2023-10-19T10:25:50;38.03;;;20.10;;
4756;SDS011;2392;52.578;13.426;2023-10-19T10:28:20;45.23;;;21.83;;
4756;SDS011;2392;52.578;13.426;2023-10-19T10:33:39;45.90;;;20.77;;
4756;SDS011;2392;52.578;13.426;2023-10-19T10:36:10;42.73;;;21.97;;
4756;SDS011;2392;52.578;13.426;2023-10-19T10:38:37;42.97;;;20.63;;
4756;SDS011;2392;52.578;13.426;2023-10-19T10:41:05;43.90;;;21.07;;
4756;SDS011;2392;52.578;13.426;2023-10-19T10:43:48;44.60;;;22.30;;
4756;SDS011;2392;52.578;13.426;2023-10-19T10:46:19;42.30;;;20.93;;
4756;SDS011;2392;52.578;13.426;2023-10-19T10:48:48;41.00;;;20.83;;
4756;SDS011;2392;52.578;13.426;2023-10-19T10:51:16;41.93;;;22.10;;
4756;SDS011;2392;52.578;13.426;2023-10-19T10:53:46;48.87;;;24.20;;
4756;SDS011;2392;52.578;13.426;2023-10-19T10:56:17;46.00;;;23.23;;
4756;SDS011;2392;52.578;13.426;2023-10-19T10:58:44;44.77;;;23.13;;
4756;SDS011;2392;52.578;13.426;2023-10-19T11:01:13;41.50;;;21.80;;
4756;SDS011;2392;52.578;13.426;2023-10-19T11:03:40;43.87;;;22.20;;
4756;SDS011;2392;52.578;13.426;2023-10-19T11:06:11;47.70;;;25.60;;
4756;SDS011;2392;52.578;13.426;2023-10-19T11:08:38;45.83;;;22.23;;
4756;SDS011;2392;52.578;13.426;2023-10-19T11:11:07;42.20;;;21.87;;
4756;SDS011;2392;52.578;13.426;2023-10-19T11:13:36;43.50;;;21.60;;
4756;SDS011;2392;52.578;13.426;2023-10-19T11:16:04;41.90;;;20.90;;
4756;SDS011;2392;52.578;13.426;2023-10-19T11:18:37;42.87;;;22.33;;
4756;SDS011;2392;52.578;13.426;2023-10-19T11:21:06;46.20;;;22.70;;
4756;SDS011;2392;52.578;13.426;2023-10-19T11:23:39;47.30;;;22.47;;
4756;SDS011;2392;52.578;13.426;2023-10-19T11:26:08;44.63;;;23.00;;
4756;SDS011;2392;52.578;13.426;2023-10-19T11:28:36;46.53;;;23.40;;
4756;SDS011;2392;52.578;13.426;2023-10-19T11:31:16;41.63;;;22.70;;
4756;SDS011;2392;52.578;13.426;2023-10-19T11:33:45;49.83;;;24.87;;
4756;SDS011;2392;52.578;13.426;2023-10-19T11:36:16;46.13;;;24.97;;
4756;SDS011;2392;52.578;13.426;2023-10-19T11:38:46;53.73;;;24.27;;
4756;SDS011;2392;52.578;13.426;2023-10-19T11:41:14;48.20;;;22.93;;
4756;SDS011;2392;52.578;13.426;2023-10-19T11:43:42;51.23;;;24.70;;
4756;SDS011;2392;52.578;13.426;2023-10-19T11:46:13;46.40;;;22.33;;
4756;SDS011;2392;52.578;13.426;2023-10-19T11:48:42;45.00;;;23.17;;
4756;SDS011;2392;52.578;13.426;2023-10-19T11:51:12;46.70;;;23.17;;
4756;SDS011;2392;52.578;13.426;2023-10-19T11:53:40;50.60;;;24.67;;
4756;SDS011;2392;52.578;13.426;2023-10-19T11:56:08;49.17;;;25.03;;
4756;SDS011;2392;52.578;13.426;2023-10-19T11:58:38;43.07;;;23.93;;
4756;SDS011;2392;52.578;13.426;2023-10-19T12:01:09;50.23;;;25.03;;
4756;SDS011;2392;52.578;13.426;2023-10-19T12:03:38;49.83;;;25.20;;
4756;SDS011;2392;52.578;13.426;2023-10-19T12:06:07;52.80;;;24.47;;
4756;SDS011;2392;52.578;13.426;2023-10-19T12:08:35;51.23;;;24.47;;
4756;SDS011;2392;52.578;13.426;2023-10-19T12:11:03;49.00;;;25.33;;
4756;SDS011;2392;52.578;13.426;2023-10-19T12:13:40;47.97;;;24.63;;
4756;SDS011;2392;52.578;13.426;2023-10-19T12:16:08;45.17;;;24.90;;
4756;SDS011;2392;52.578;13.426;2023-10-19T12:18:37;55.57;;;25.80;;
4756;SDS011;2392;52.578;13.426;2023-10-19T12:21:04;44.43;;;24.27;;
4756;SDS011;2392;52.578;13.426;2023-10-19T12:23:37;45.43;;;25.33;;
4756;SDS011;2392;52.578;13.426;2023-10-19T12:26:05;55.90;;;24.97;;
4756;SDS011;2392;52.578;13.426;2023-10-19T12:28:36;49.50;;;23.80;;
4756;SDS011;2392;52.578;13.426;2023-10-19T12:31:04;50.50;;;25.70;;
4756;SDS011;2392;52.578;13.426;2023-10-19T12:33:33;49.90;;;24.37;;
4756;SDS011;2392;52.578;13.426;2023-10-19T12:36:01;45.53;;;23.37;;
4756;SDS011;2392;52.578;13.426;2023-10-19T12:38:49;54.80;;;26.43;;
4756;SDS011;2392;52.578;13.426;2023-10-19T12:41:16;49.57;;;22.87;;
4756;SDS011;2392;52.578;13.426;2023-10-19T12:43:43;45.30;;;24.17;;
4756;SDS011;2392;52.578;13.426;2023-10-19T12:46:11;52.10;;;25.57;;
4756;SDS011;2392;52.578;13.426;2023-10-19T12:48:41;45.73;;;24.60;;
4756;SDS011;2392;52.578;13.426;2023-10-19T12:51:08;50.70;;;26.63;;
4756;SDS011;2392;52.578;13.426;2023-10-19T12:53:36;48.93;;;26.00;;
4756;SDS011;2392;52.578;13.426;2023-10-19T12:56:05;49.50;;;27.60;;
4756;SDS011;2392;52.578;13.426;2023-10-19T12:58:35;43.80;;;23.70;;
4756;SDS011;2392;52.578;13.426;2023-10-19T13:01:03;47.00;;;26.53;;
4756;SDS011;2392;52.578;13.426;2023-10-19T13:03:31;46.30;;;24.73;;
4756;SDS011;2392;52.578;13.426;2023-10-19T13:05:58;46.80;;;23.43;;
4756;SDS011;2392;52.578;13.426;2023-10-19T13:08:29;51.93;;;25.50;;
4756;SDS011;2392;52.578;13.426;2023-10-19T13:10:56;44.97;;;23.87;;
4756;SDS011;2392;52.578;13.426;2023-10-19T13:13:24;45.67;;;24.47;;
4756;SDS011;2392;52.578;13.426;2023-10-19T13:15:52;49.30;;;26.40;;
4756;SDS011;2392;52.578;13.426;2023-10-19T13:18:19;54.97;;;24.20;;
4756;SDS011;2392;52.578;13.426;2023-10-19T13:20:48;50.13;;;26.03;;
4756;SDS011;2392;52.578;13.426;2023-10-19T13:23:15;50.70;;;27.73;;
4756;SDS011;2392;52.578;13.426;2023-10-19T13:25:42;45.67;;;24.40;;
4756;SDS011;2392;52.578;13.426;2023-10-19T13:28:16;62.63;;;26.43;;
4756;SDS011;2392;52.578;13.426;2023-10-19T13:30:47;47.40;;;24.90;;
4756;SDS011;2392;52.578;13.426;2023-10-19T13:33:15;52.70;;;25.77;;
4756;SDS011;2392;52.578;13.426;2023-10-19T13:35:43;50.90;;;25.13;;
4756;SDS011;2392;52.578;13.426;2023-10-19T13:38:13;47.93;;;25.20;;
4756;SDS011;2392;52.578;13.426;2023-10-19T13:40:42;45.60;;;24.23;;
4756;SDS011;2392;52.578;13.426;2023-10-19T13:43:10;51.10;;;26.73;;
4756;SDS011;2392;52.578;13.426;2023-10-19T13:45:40;46.93;;;23.87;;
4756;SDS011;2392;52.578;13.426;2023-10-19T13:48:09;50.27;;;27.93;;
4756;SDS011;2392;52.578;13.426;2023-10-19T13:50:40;45.17;;;24.70;;
4756;SDS011;2392;52.578;13.426;2023-10-19T13:53:11;49.53;;;26.33;;
4756;SDS011;2392;52.578;13.426;2023-10-19T13:55:38;49.27;;;24.90;;
4756;SDS011;2392;52.578;13.426;2023-10-19T13:58:05;47.13;;;25.10;;
4756;SDS011;2392;52.578;13.426;2023-10-19T14:00:33;50.13;;;25.97;;
4756;SDS011;2392;52.578;13.426;2023-10-19T14:03:06;44.47;;;23.80;;
4756;SDS011;2392;52.578;13.426;2023-10-19T14:05:38;55.80;;;27.50;;
4756;SDS011;2392;52.578;13.426;2023-10-19T14:08:08;50.97;;;26.07;;
4756;SDS011;2392;52.578;13.426;2023-10-19T14:10:36;48.87;;;24.87;;
4756;SDS011;2392;52.578;13.426;2023-10-19T14:13:06;44.90;;;24.30;;
4756;SDS011;2392;52.578;13.426;2023-10-19T14:15:34;46.50;;;23.97;;
4756;SDS011;2392;52.578;13.426;2023-10-19T14:18:01;49.47;;;26.13;;
4756;SDS011;2392;52.578;13.426;2023-10-19T14:20:28;51.50;;;26.17;;
4756;SDS011;2392;52.578;13.426;2023-10-19T14:22:57;50.13;;;25.93;;
4756;SDS011;2392;52.578;13.426;2023-10-19T14:25:24;46.97;;;25.27;;
4756;SDS011;2392;52.578;13.426;2023-10-19T14:27:52;51.03;;;26.60;;
4756;SDS011;2392;52.578;13.426;2023-10-19T14:30:23;50.20;;;26.70;;
4756;SDS011;2392;52.578;13.426;2023-10-19T14:32:51;52.97;;;26.63;;
4756;SDS011;2392;52.578;13.426;2023-10-19T14:35:19;50.70;;;23.97;;
4756;SDS011;2392;52.578;13.426;2023-10-19T14:37:48;47.13;;;25.60;;
4756;SDS011;2392;52.578;13.426;2023-10-19T14:40:18;47.47;;;25.70;;
4756;SDS011;2392;52.578;13.426;2023-10-19T14:42:46;51.47;;;26.90;;
4756;SDS011;2392;52.578;13.426;2023-10-19T14:45:15;51.07;;;25.90;;
4756;SDS011;2392;52.578;13.426;2023-10-19T14:47:46;54.93;;;25.10;;
4756;SDS011;2392;52.578;13.426;2023-10-19T14:50:14;54.77;;;25.37;;
4756;SDS011;2392;52.578;13.426;2023-10-19T14:52:43;43.33;;;23.77;;
4756;SDS011;2392;52.578;13.426;2023-10-19T14:55:12;45.80;;;24.60;;
4756;SDS011;2392;52.578;13.426;2023-10-19T14:57:42;48.27;;;25.70;;
4756;SDS011;2392;52.578;13.426;2023-10-19T15:00:14;47.10;;;26.27;;
4756;SDS011;2392;52.578;13.426;2023-10-19T15:02:47;47.00;;;26.20;;
4756;SDS011;2392;52.578;13.426;2023-10-19T15:05:15;47.57;;;24.70;;
4756;SDS011;2392;52.578;13.426;2023-10-19T15:07:44;46.87;;;24.97;;
4756;SDS011;2392;52.578;13.426;2023-10-19T15:10:17;53.93;;;26.90;;
4756;SDS011;2392;52.578;13.426;2023-10-19T15:12:46;46.47;;;26.67;;
4756;SDS011;2392;52.578;13.426;2023-10-19T15:15:13;50.50;;;27.13;;
4756;SDS011;2392;52.578;13.426;2023-10-19T15:17:41;50.03;;;27.37;;
4756;SDS011;2392;52.578;13.426;2023-10-19T15:20:09;53.47;;;26.00;;
4756;SDS011;2392;52.578;13.426;2023-10-19T15:22:37;49.50;;;27.30;;
4756;SDS011;2392;52.578;13.426;2023-10-19T15:25:04;47.97;;;24.90;;
4756;SDS011;2392;52.578;13.426;2023-10-19T15:27:32;48.10;;;26.50;;
4756;SDS011;2392;52.578;13.426;2023-10-19T15:30:01;49.97;;;25.60;;